x

Buzzards Bay, Ma (buzm3) Weather Station

11:00 - Sat 30th Apr 2016 All times are EDT. -4 hours from GMT.

  • Wind
    9mph, 10mph gusts
  • Aire Temp 46°f
  • Sea Pressure 1025.2mb
  • Buzzards Bay, Ma
  • Buzzards Bay, Ma

More Historic Weather Station data

Upgrade to MSW Pro to gain access to the past 30 days of data for over 8000 Wavebouys and Weather Stations around the globe.

Join Pro

Comparision Forecast

View Surf forecast
   
sáb 04/30 11:00 9 10 mph 1025.2mb 46f
10:00 9 10 mph 1025.6mb 46f
9:00 7
mph
1025.8mb 46f
8:00 7 8 mph 1025.4mb 46f
7:00 10 11 mph 1024.7mb 46f
6:00 13 15 mph 1024.8mb 47f
5:00 17 18 mph 1024.2mb 46f
4:00 17 20 mph 1024.1mb 47f
3:00 18 20 mph 1023.5mb 47f
2:00 17
mph
1022.9mb 47f
1:00 10
mph
1023.2mb 47f
12:00 10 11 mph 1023.1mb 48f
11:00 11 13 mph 1023.5mb 46f
10:00 11 13 mph 1023.9mb 46f
9:00 7
mph
1024.1mb 46f
8:00 6 7 mph 1024.1mb 45f
7:00 6 7 mph 1023.1mb 45f
6:00 6
mph
1022.4mb 45f
5:00 5 6 mph 1022mb 45f
4:00 6
mph
1022.4mb 45f
3:00 10 11 mph 1021.8mb 45f
2:00 7 8 mph 1022.1mb 45f
1:00 7 8 mph 1022.2mb 45f
12:00 8 9 mph 1021.8mb 45f
vie 04/29 11:00 14 15 mph 1021.3mb 45f
10:00 16 18 mph 1021.2mb 45f
9:00 15 16 mph 1021.3mb 45f
8:00 18 20 mph 1020.7mb 45f
7:00 16 17 mph 1020.5mb 46f
6:00 16
mph
1020.2mb 46f
5:00 16 17 mph 1020.6mb 46f
4:00 16 18 mph 1020.3mb 45f
3:00 11 13 mph 1020.6mb 46f
2:00 13 15 mph 1021.2mb 46f
1:00 11 13 mph 1022mb 45f
12:00 15
mph
1022.4mb 45f
11:00 13 15 mph 1022.2mb 45f
10:00 18 20 mph 1022.1mb 44f
9:00 17 18 mph 1022mb 44f
8:00 17 18 mph 1021.8mb 44f
7:00 18 20 mph 1021.6mb 44f
6:00 15 16 mph 1020.8mb 44f
5:00 10 11 mph 1020.5mb 45f
4:00 10 11 mph 1020.2mb 45f
3:00 10 11 mph 1019.6mb 44f
2:00 10 11 mph 1019.3mb 45f
1:00 11
mph
1019.5mb 45f
12:00 10
mph
1019.7mb 46f
jue 04/28 11:00 8 9 mph 1019.8mb 44f
10:00 10 11 mph 1019.7mb 45f
9:00 10 11 mph 1019.3mb 46f
8:00 10 11 mph 1019mb 46f
7:00 13 14 mph 1018.7mb 46f
6:00 14 15 mph 1018.6mb 46f
5:00 16 17 mph 1018.2mb 46f
4:00 15 17 mph 1017.6mb 46f
3:00 13 14 mph 1017.7mb 46f
2:00 16 17 mph 1018.3mb 46f
1:00 15 17 mph 1018.3mb 46f
12:00 8 9 mph 1018.5mb 47f
11:00 8 9 mph 1018.7mb 46f
10:00 9
mph
1018.6mb 46f
9:00 10
mph
1018.4mb 45f
8:00 13
mph
1017.9mb 45f
7:00 11 13 mph 1017.5mb 45f
6:00 16 18 mph 1016.1mb 44f
5:00 17 22 mph 1014.9mb 45f
4:00 17 18 mph 1014.2mb 46f
3:00 10 11 mph 1013.2mb 47f
2:00 13 14 mph 1013mb 47f
1:00 14 15 mph 1012.9mb 47f
12:00 14 15 mph 1012.7mb 47f
mié 04/27 11:00 15 16 mph 1012.4mb 46f
10:00 18 20 mph 1011.9mb 46f
9:00 18 21 mph 1011.7mb 46f
8:00 17 20 mph 1011.2mb 46f
7:00 20 21 mph 1011.6mb 45f
6:00 20 21 mph 1011.9mb 45f
5:00 18 20 mph 1012.1mb 45f
4:00 20 21 mph 1012.4mb 44f
3:00 16 18 mph 1012.9mb 44f
2:00 15 16 mph 1013.2mb 44f
1:00 14 15 mph 1013.8mb 43f
12:00 13 14 mph 1014mb 43f
11:00 6
mph
1014mb 43f
10:00 5
mph
1014.1mb 43f
9:00 6 7 mph 1014mb 43f
7:00 2 3 mph 1013.7mb 42f
6:00 2 3 mph 1013.5mb 40f
5:00 8 9 mph 1012.9mb 39f